Time;durP1;ratioP1;P1;durP2;ratioP2;P2;SDS_P1;SDS_P2;PMS_P1;PMS_P2;Temp;Humidity;BMP_temperature;BMP_pressure;BME280_temperature;BME280_humidity;BME280_pressure;Samples;Min_cycle;Max_cycle;Signal;HPM_P1;HPM_P2
2022/05/10 00:00:24;;;;;;;12.67;5.63;;;13.80;99.90;;;14.65;100.00;98709.66;5016589;28;20467;-76
2022/05/10 00:03:01;;;;;;;6.33;5.00;;;13.70;99.90;;;14.53;100.00;98709.41;5017852;28;20506;-76
2022/05/10 00:05:38;;;;;;;6.63;4.13;;;13.60;99.90;;;14.48;100.00;98705.72;5017058;28;20470;-76
2022/05/10 00:08:12;;;;;;;6.10;4.33;;;13.50;99.90;;;14.42;100.00;98698.63;5017408;28;20506;-76
2022/05/10 00:10:42;;;;;;;5.20;4.10;;;13.60;99.90;;;14.38;100.00;98703.47;5018594;28;20517;-76
2022/05/10 00:13:14;;;;;;;7.37;4.63;;;13.50;99.90;;;14.30;100.00;98698.31;5019873;28;20463;-76
2022/05/10 00:15:44;;;;;;;9.10;4.20;;;13.40;99.90;;;14.20;100.00;98700.47;5016892;28;20472;-76
2022/05/10 00:18:17;;;;;;;7.40;4.70;;;13.20;99.90;;;14.16;100.00;98701.09;5016360;28;20461;-76
2022/05/10 00:20:49;;;;;;;4.17;3.70;;;13.20;99.90;;;14.19;100.00;98695.44;5017857;28;20464;-76
2022/05/10 00:23:22;;;;;;;7.37;4.63;;;13.20;99.90;;;14.21;100.00;98699.50;5018344;28;20458;-76
2022/05/10 00:25:53;;;;;;;5.13;4.40;;;13.20;99.90;;;14.24;100.00;98696.47;5018183;28;20471;-76
2022/05/10 00:28:23;;;;;;;5.37;4.40;;;13.30;99.90;;;14.25;100.00;98697.28;5017725;28;20466;-76
2022/05/10 00:30:54;;;;;;;12.77;4.47;;;13.40;99.90;;;14.21;100.00;98706.56;5018849;28;20520;-76
2022/05/10 00:33:30;;;;;;;5.27;4.40;;;13.30;99.90;;;14.21;100.00;98698.66;5018439;28;20439;-76
2022/05/10 00:36:01;;;;;;;7.17;4.00;;;13.30;99.90;;;14.15;100.00;98699.44;5015923;28;20850;-76
2022/05/10 00:38:36;;;;;;;7.10;4.77;;;13.30;99.90;;;14.03;100.00;98696.53;5017008;28;20458;-76
2022/05/10 00:41:13;;;;;;;6.00;3.80;;;13.10;99.90;;;13.97;100.00;98700.75;5018614;28;20980;-76
2022/05/10 00:43:47;;;;;;;4.23;3.80;;;13.00;99.90;;;13.94;100.00;98692.44;5018065;28;20466;-76
2022/05/10 00:46:24;;;;;;;12.70;4.67;;;13.00;99.90;;;13.94;100.00;98700.34;5017835;28;20952;-76
2022/05/10 00:49:06;;;;;;;5.20;4.27;;;13.10;99.90;;;13.89;100.00;98694.81;5018097;28;20737;-76
2022/05/10 00:51:43;;;;;;;6.37;4.40;;;13.10;99.90;;;13.78;100.00;98687.50;5016051;28;20489;-76
2022/05/10 00:54:26;;;;;;;6.07;4.47;;;12.90;99.90;;;13.78;100.00;98687.50;5016825;28;20466;-76
2022/05/10 00:57:09;;;;;;;5.60;4.03;;;12.90;99.90;;;13.82;100.00;98686.06;5015289;28;20490;-76
2022/05/10 01:00:11;;;;;;;8.03;4.20;;;12.80;99.90;;;13.70;100.00;98685.81;5019375;28;20472;-76
2022/05/10 01:02:59;;;;;;;5.80;4.43;;;12.90;99.90;;;13.61;100.00;98685.13;5015630;28;20454;-77
2022/05/10 01:05:41;;;;;;;4.83;4.30;;;12.80;99.90;;;13.61;100.00;98684.31;5017101;28;20516;-76
2022/05/10 01:08:21;;;;;;;8.53;4.37;;;12.90;99.90;;;13.59;100.00;98684.50;5016747;28;20524;-76
2022/05/10 01:10:58;;;;;;;5.60;4.80;;;12.80;99.90;;;13.51;100.00;98684.63;5015268;28;20477;-76
2022/05/10 01:13:33;;;;;;;8.40;5.10;;;12.80;99.90;;;13.52;100.00;98672.31;5015685;28;20519;-76
2022/05/10 01:16:08;;;;;;;6.30;4.80;;;12.70;99.90;;;13.48;100.00;98669.25;5016335;28;20548;-76
2022/05/10 01:18:40;;;;;;;6.17;4.57;;;12.80;99.90;;;13.38;100.00;98666.16;5019642;28;20458;-76
2022/05/10 01:21:41;;;;;;;5.10;4.23;;;12.60;99.90;;;13.35;100.00;98661.28;5019776;28;20466;-76
2022/05/10 01:24:43;;;;;;;5.80;4.30;;;12.50;99.90;;;13.35;100.00;98658.66;5020745;28;20878;-76
2022/05/10 01:27:39;;;;;;;6.23;4.47;;;12.50;99.90;;;13.34;100.00;98654.38;5020794;28;20472;-76
2022/05/10 01:30:15;;;;;;;5.80;4.47;;;12.50;99.90;;;13.32;100.00;98655.59;5021932;28;20988;-76
2022/05/10 01:35:48;;;;;;;15.50;4.83;;;12.40;99.90;;;13.24;100.00;98643.38;5021796;28;20451;-76
2022/05/10 01:38:32;;;;;;;6.10;4.90;;;12.30;99.90;;;13.24;100.00;98638.13;5021709;28;20496;-76
2022/05/10 01:41:13;;;;;;;9.90;4.70;;;12.40;99.90;;;13.20;100.00;98633.44;5021620;28;20937;-76
2022/05/10 01:43:51;;;;;;;5.10;4.53;;;12.40;99.90;;;13.17;100.00;98639.06;5021335;28;21028;-76
2022/05/10 01:46:26;;;;;;;7.40;4.30;;;12.30;99.90;;;13.18;100.00;98636.28;5021312;28;20953;-76
2022/05/10 01:49:09;;;;;;;5.57;5.00;;;12.40;99.90;;;13.16;100.00;98635.63;5019072;28;21170;-76
2022/05/10 01:51:53;;;;;;;8.07;5.30;;;12.40;99.90;;;13.20;100.00;98631.63;5019574;28;20537;-76
2022/05/10 01:55:03;;;;;;;5.63;4.47;;;12.20;99.90;;;13.12;100.00;98631.75;5020738;28;20466;-76
2022/05/10 01:57:38;;;;;;;7.30;4.90;;;12.20;99.90;;;13.10;100.00;98624.09;5017760;28;20524;-76
2022/05/10 02:00:15;;;;;;;5.80;4.30;;;12.20;99.90;;;13.16;100.00;98630.38;5019521;28;20457;-76
2022/05/10 02:02:54;;;;;;;8.20;5.10;;;12.20;99.90;;;13.08;100.00;98623.41;5020569;28;20466;-76
2022/05/10 02:05:34;;;;;;;5.90;5.30;;;12.10;99.90;;;13.04;100.00;98624.00;5020496;28;20464;-76
2022/05/10 02:08:22;;;;;;;5.90;4.37;;;12.10;99.90;;;12.94;100.00;98626.94;5018538;28;20454;-76
2022/05/10 02:10:56;;;;;;;8.27;5.30;;;12.10;99.90;;;12.92;100.00;98633.34;5020409;28;21035;-76
2022/05/10 02:13:31;;;;;;;6.60;4.97;;;12.00;99.90;;;12.90;100.00;98630.94;5018856;28;20489;-76
2022/05/10 02:16:10;;;;;;;5.60;4.60;;;12.00;99.90;;;12.88;100.00;98624.22;5020339;28;20454;-76
2022/05/10 02:18:52;;;;;;;6.10;4.80;;;11.90;99.90;;;12.91;100.00;98631.75;5021283;28;21021;-76
2022/05/10 02:21:28;;;;;;;5.60;4.47;;;11.90;99.90;;;12.85;100.00;98629.84;5020304;28;20904;-76
2022/05/10 02:24:04;;;;;;;8.07;4.20;;;11.90;99.90;;;12.80;100.00;98624.38;5017451;28;20461;-76
2022/05/10 02:26:43;;;;;;;6.37;4.77;;;11.80;99.90;;;12.83;100.00;98630.06;5019677;28;20467;-76
2022/05/10 02:29:27;;;;;;;5.87;4.90;;;11.90;99.90;;;12.74;100.00;98615.41;5016447;28;20490;-76
2022/05/10 02:34:57;;;;;;;5.07;4.57;;;11.80;99.90;;;12.76;100.00;98623.94;5020071;28;21026;-76
2022/05/10 02:37:27;;;;;;;8.87;5.17;;;11.90;99.90;;;12.75;100.00;98616.22;5019451;28;20439;-76
2022/05/10 02:39:58;;;;;;;6.93;4.87;;;11.90;99.90;;;12.74;100.00;98623.28;5019958;28;20455;-76
2022/05/10 02:42:29;;;;;;;5.10;4.27;;;11.90;99.90;;;12.74;100.00;98614.63;5020179;28;20454;-76
2022/05/10 02:44:59;;;;;;;5.93;4.70;;;11.80;99.90;;;12.71;100.00;98621.03;5019601;28;20805;-76
2022/05/10 02:47:32;;;;;;;7.07;4.80;;;11.90;99.90;;;12.75;100.00;98610.97;5018479;28;20568;-76
2022/05/10 02:50:04;;;;;;;9.33;5.13;;;11.80;99.90;;;12.71;100.00;98607.09;5019800;28;20520;-76
2022/05/10 02:52:34;;;;;;;7.20;4.47;;;11.80;99.90;;;12.71;100.00;98604.47;5023680;28;20595;-76
2022/05/10 02:55:13;;;;;;;6.90;5.07;;;11.80;99.90;;;12.67;100.00;98611.13;5019190;28;20459;-76
2022/05/10 02:57:47;;;;;;;5.10;4.20;;;11.80;99.90;;;12.70;100.00;98602.88;5018222;28;20509;-76
2022/05/10 03:00:18;;;;;;;4.83;4.43;;;11.80;99.90;;;12.65;100.00;98605.22;5018878;28;20462;-76
2022/05/10 03:02:53;;;;;;;7.70;4.73;;;11.80;99.90;;;12.62;100.00;98606.41;5021455;28;20465;-76
2022/05/10 03:05:26;;;;;;;5.30;4.77;;;11.70;99.90;;;12.59;100.00;98606.78;5019959;28;20833;-76
2022/05/10 03:07:57;;;;;;;6.70;4.87;;;11.70;99.90;;;12.53;100.00;98607.50;5015959;28;20810;-76
2022/05/10 03:10:31;;;;;;;5.97;4.80;;;11.70;99.90;;;12.53;100.00;98605.72;5018986;28;20457;-84
2022/05/10 03:13:01;;;;;;;7.03;4.60;;;11.70;99.90;;;12.51;100.00;98602.47;5019131;28;20494;-76
2022/05/10 03:15:33;;;;;;;5.10;4.30;;;11.80;99.90;;;12.50;100.00;98613.94;5017970;28;20459;-76
2022/05/10 03:18:01;;;;;;;6.10;4.83;;;11.70;99.90;;;12.47;100.00;98603.84;5016673;28;20455;-76
2022/05/10 03:20:32;;;;;;;7.30;4.37;;;11.70;99.90;;;12.47;100.00;98603.84;5017672;28;20462;-76
2022/05/10 03:23:02;;;;;;;5.27;4.50;;;11.60;99.90;;;12.48;100.00;98607.28;5017167;28;20552;-76
2022/05/10 03:25:33;;;;;;;6.10;4.40;;;11.60;99.90;;;12.44;100.00;98601.59;5017685;28;20466;-76
2022/05/10 03:28:05;;;;;;;7.70;4.97;;;11.60;99.90;;;12.38;100.00;98602.31;5018855;28;20552;-83
2022/05/10 03:30:36;;;;;;;8.60;5.13;;;11.60;99.90;;;12.34;100.00;98608.13;5017228;28;20540;-76
2022/05/10 03:33:07;;;;;;;5.47;4.60;;;11.60;99.90;;;12.33;100.00;98602.06;5016970;28;20506;-76
2022/05/10 03:35:38;;;;;;;5.53;4.67;;;11.60;99.90;;;12.31;100.00;98601.44;5015811;28;20491;-82
2022/05/10 03:38:08;;;;;;;5.47;4.40;;;11.50;99.90;;;12.28;100.00;98604.44;5014005;28;20459;-77
2022/05/10 03:40:38;;;;;;;6.40;4.27;;;11.50;99.90;;;12.26;100.00;98597.72;5018594;28;20458;-76
2022/05/10 03:43:11;;;;;;;6.83;4.40;;;11.40;99.90;;;12.25;100.00;98596.13;5018773;28;20473;-76
2022/05/10 03:45:40;;;;;;;6.47;4.90;;;11.40;99.90;;;12.28;100.00;98599.19;5018821;28;20972;-76
2022/05/10 03:48:11;;;;;;;6.23;4.70;;;11.40;99.90;;;12.27;100.00;98594.13;5019605;28;20536;-76
2022/05/10 03:50:41;;;;;;;7.97;5.30;;;11.40;99.90;;;12.20;100.00;98601.91;5018829;28;20504;-76
2022/05/10 03:53:11;;;;;;;10.00;4.90;;;11.40;99.90;;;12.22;100.00;98597.28;5023911;28;20568;-76
2022/05/10 03:55:41;;;;;;;7.40;5.03;;;11.30;99.90;;;12.24;100.00;98595.31;5024282;28;21036;-76
2022/05/10 03:58:13;;;;;;;5.60;4.43;;;11.40;99.90;;;12.22;100.00;98589.41;5024402;28;20465;-76
2022/05/10 04:00:42;;;;;;;6.90;5.00;;;11.40;99.90;;;12.22;100.00;98586.78;5022607;28;21023;-84
2022/05/10 04:03:11;;;;;;;5.50;5.00;;;11.40;99.90;;;12.18;100.00;98588.19;5018614;28;20471;-77
2022/05/10 04:05:43;;;;;;;9.17;4.90;;;11.30;99.90;;;12.19;100.00;98586.34;5017785;28;20533;-76
2022/05/10 04:08:12;;;;;;;8.83;5.60;;;11.30;99.90;;;12.16;100.00;98582.28;5017061;28;20465;-73
2022/05/10 04:10:42;;;;;;;7.20;5.00;;;11.30;99.90;;;12.14;100.00;98580.84;5019436;28;20466;-76
2022/05/10 04:13:12;;;;;;;6.00;4.70;;;11.30;99.90;;;12.15;100.00;98587.72;5019459;28;20495;-76
2022/05/10 04:15:43;;;;;;;9.77;5.87;;;11.30;99.90;;;12.11;100.00;98582.03;5018827;28;20449;-76
2022/05/10 04:18:13;;;;;;;5.37;4.80;;;11.30;99.90;;;12.11;100.00;98579.41;5018529;28;20439;-76
2022/05/10 04:20:44;;;;;;;5.97;4.80;;;11.30;99.90;;;12.11;100.00;98579.41;5017286;28;20448;-76
2022/05/10 04:23:14;;;;;;;6.53;4.80;;;11.20;99.90;;;12.13;100.00;98585.28;5019408;28;20521;-76
2022/05/10 04:26:05;;;;;;;6.50;4.57;;;11.20;99.90;;;12.18;100.00;98593.41;5019221;28;20439;-76
2022/05/10 04:28:36;;;;;;;5.70;4.63;;;11.30;99.90;;;12.19;100.00;98589.78;5019712;28;20462;-76
2022/05/10 04:31:07;;;;;;;11.13;7.03;;;11.20;99.90;;;12.19;100.00;98596.81;5020386;28;20446;-76
2022/05/10 04:33:36;;;;;;;6.50;5.17;;;11.20;99.90;;;12.20;100.00;98585.34;5019153;28;20493;-76
2022/05/10 04:36:09;;;;;;;5.03;4.57;;;11.30;99.90;;;12.20;100.00;98594.03;5020198;28;20929;-76
2022/05/10 04:38:45;;;;;;;5.67;4.67;;;11.30;99.90;;;12.18;100.00;98597.84;5018694;28;20442;-76
2022/05/10 04:41:25;;;;;;;6.10;4.90;;;11.30;99.90;;;12.17;100.00;98589.16;5019813;28;20541;-76
2022/05/10 04:43:59;;;;;;;8.60;5.30;;;11.30;99.90;;;12.19;100.00;98588.97;5019972;28;20450;-76
2022/05/10 04:46:31;;;;;;;10.87;4.70;;;11.30;99.90;;;12.21;100.00;98587.81;5020127;28;20454;-76
2022/05/10 04:49:02;;;;;;;5.93;5.20;;;11.30;99.90;;;12.21;100.00;98590.44;5020964;28;20839;-76
2022/05/10 04:51:33;;;;;;;7.17;5.47;;;11.30;99.90;;;12.22;100.00;98589.41;5019377;28;20489;-76
2022/05/10 04:54:02;;;;;;;7.10;5.50;;;11.30;99.90;;;12.24;100.00;98590.06;5023095;28;20580;-76
2022/05/10 04:56:33;;;;;;;4.60;4.20;;;11.30;99.90;;;12.26;100.00;98590.66;5025156;28;21225;-76
2022/05/10 04:59:03;;;;;;;7.70;4.97;;;11.30;99.90;;;12.25;100.00;98594.28;5029489;28;20446;-76
2022/05/10 05:01:33;;;;;;;6.37;5.33;;;11.30;99.90;;;12.26;100.00;98590.66;5024667;28;20527;-77
2022/05/10 05:04:04;;;;;;;6.00;5.07;;;11.30;99.90;;;12.27;100.00;98594.13;5023389;28;20450;-76
2022/05/10 05:06:39;;;;;;;11.50;4.47;;;11.30;99.90;;;12.29;100.00;98595.53;5024857;28;20489;-75
2022/05/10 05:09:08;;;;;;;6.63;5.77;;;11.30;99.90;;;12.34;100.00;98587.94;5023274;28;20447;-76
2022/05/10 05:11:38;;;;;;;7.70;5.17;;;11.30;99.90;;;12.39;100.00;98588.19;5022634;28;20497;-76
2022/05/10 05:14:08;;;;;;;8.90;5.40;;;11.30;99.90;;;12.41;100.00;98593.28;5023605;28;20504;-76
2022/05/10 05:16:38;;;;;;;10.97;5.43;;;11.40;99.90;;;12.43;100.00;98596.50;5023267;28;20456;-76
2022/05/10 05:19:08;;;;;;;6.50;5.37;;;11.40;99.90;;;12.45;100.00;98597.97;5023017;28;20477;-76
2022/05/10 05:21:39;;;;;;;5.33;4.73;;;11.40;99.90;;;12.46;100.00;98594.31;5023364;28;20443;-76
2022/05/10 05:24:11;;;;;;;5.63;5.00;;;11.40;99.90;;;12.52;100.00;98595.41;5023770;28;20449;-76
2022/05/10 05:26:40;;;;;;;7.70;4.90;;;11.40;99.90;;;12.56;100.00;98599.28;5023544;28;20439;-76
2022/05/10 05:29:10;;;;;;;5.53;5.03;;;11.50;99.90;;;12.60;100.00;98603.97;5022727;28;20467;-76
2022/05/10 05:31:41;;;;;;;8.30;6.27;;;11.50;99.90;;;12.65;100.00;98599.97;5022419;28;20454;-76
2022/05/10 05:34:11;;;;;;;7.00;5.43;;;11.50;99.90;;;12.70;100.00;98592.38;5023322;28;20550;-76
2022/05/10 05:37:32;;;;;;;14.27;5.90;;;11.60;99.90;;;12.74;100.00;98593.63;5021854;28;20442;-76
2022/05/10 05:39:33;;;;;;;7.20;5.67;;;11.70;99.90;;;12.80;100.00;98595.50;5023430;28;20450;-76
2022/05/10 05:42:06;;;;;;;8.50;5.43;;;11.80;99.90;;;12.83;100.00;98597.75;5022793;28;20454;-76
2022/05/10 05:44:36;;;;;;;9.07;5.50;;;11.90;99.90;;;12.88;100.00;98587.47;5024172;28;20439;-76
2022/05/10 05:47:07;;;;;;;6.27;5.30;;;11.90;99.90;;;12.91;100.00;98587.13;5023141;28;20549;-76
2022/05/10 05:49:35;;;;;;;7.20;5.40;;;11.90;99.90;;;12.97;100.00;98589.81;5022983;28;20861;-76
2022/05/10 05:52:08;;;;;;;6.63;4.60;;;12.00;99.90;;;13.02;100.00;98582.16;5020524;28;20952;-76
2022/05/10 05:54:38;;;;;;;8.40;5.90;;;12.00;99.90;;;13.01;100.00;98587.63;5023548;28;20486;-76
2022/05/10 05:57:09;;;;;;;8.93;5.60;;;12.10;99.90;;;13.04;100.00;98584.63;5023311;28;20482;-76
2022/05/10 05:59:39;;;;;;;6.50;5.27;;;12.10;99.90;;;13.08;100.00;98591.13;5023948;28;20445;-76
2022/05/10 06:02:14;;;;;;;12.00;6.33;;;12.10;99.90;;;13.13;100.00;98588.75;5021863;28;20549;-76
2022/05/10 06:04:44;;;;;;;7.20;5.10;;;12.20;99.90;;;13.16;100.00;98593.63;5021664;28;20504;-76
2022/05/10 06:07:16;;;;;;;5.83;5.00;;;12.20;99.90;;;13.17;100.00;98583.94;5022987;28;20913;-76
2022/05/10 06:09:48;;;;;;;8.20;4.87;;;12.20;99.90;;;13.20;100.00;98594.88;5022353;28;20458;-76
2022/05/10 06:12:20;;;;;;;7.97;5.33;;;12.30;99.90;;;13.24;100.00;98597.94;5021698;28;20455;-76
2022/05/10 06:14:51;;;;;;;6.53;5.57;;;12.30;99.90;;;13.29;100.00;98593.75;5023533;28;20526;-76
2022/05/10 06:17:20;;;;;;;11.43;6.10;;;12.30;99.90;;;13.32;100.00;98588.09;5023101;28;21410;-76
2022/05/10 06:19:51;;;;;;;6.53;5.83;;;12.40;99.90;;;13.36;100.00;98594.56;5022511;28;20529;-76
2022/05/10 06:22:23;;;;;;;8.13;5.23;;;12.40;99.90;;;13.38;100.00;98589.97;5022210;28;20519;-76
2022/05/10 06:24:52;;;;;;;7.60;5.93;;;12.60;99.90;;;13.43;100.00;98587.56;5022547;28;20442;-76
2022/05/10 06:27:21;;;;;;;22.17;6.00;;;12.60;99.90;;;13.50;100.00;98585.78;5021250;28;20462;-76
2022/05/10 06:29:58;;;;;;;7.40;5.00;;;12.60;99.90;;;13.55;100.00;98580.78;5022274;28;20519;-76
2022/05/10 06:32:29;;;;;;;8.57;5.53;;;12.60;99.90;;;13.60;100.00;98575.78;5021233;28;20451;-76
2022/05/10 06:35:00;;;;;;;13.27;6.03;;;12.70;99.90;;;13.66;100.00;98581.25;5022685;28;20483;-76
2022/05/10 06:40:20;;;;;;;7.33;6.00;;;12.80;99.90;;;13.77;100.00;98584.16;5022477;28;20470;-76
2022/05/10 06:42:50;;;;;;;9.20;5.73;;;12.90;99.90;;;13.83;100.00;98574.66;5022090;28;20455;-76
2022/05/10 06:45:21;;;;;;;6.80;5.47;;;12.90;99.90;;;13.89;100.00;98574.69;5022384;28;20469;-77
2022/05/10 06:47:51;;;;;;;7.73;6.03;;;13.00;99.90;;;13.96;100.00;98572.09;5022387;28;20948;-76
2022/05/10 06:50:24;;;;;;;7.50;5.40;;;13.10;99.90;;;14.02;100.00;98560.81;5021632;28;20466;-76
2022/05/10 06:52:58;;;;;;;8.33;5.20;;;13.10;99.90;;;14.12;100.00;98569.16;5022897;28;20501;-76
2022/05/10 06:55:31;;;;;;;7.17;5.77;;;13.20;99.90;;;14.19;100.00;98562.09;5021466;28;20492;-76
2022/05/10 06:58:01;;;;;;;9.90;5.90;;;13.30;99.90;;;14.26;100.00;98560.31;5022794;28;20447;-76
2022/05/10 07:00:35;;;;;;;10.53;6.63;;;13.40;99.90;;;14.34;100.00;98557.50;5025793;28;20442;-76
2022/05/10 07:03:07;;;;;;;7.33;5.60;;;13.50;99.90;;;14.45;100.00;98558.75;5027356;28;20540;-76
2022/05/10 07:05:38;;;;;;;13.53;6.07;;;13.60;99.90;;;14.52;100.00;98555.13;5027087;28;20469;-76
2022/05/10 07:08:10;;;;;;;9.37;5.63;;;13.70;99.90;;;14.59;100.00;98545.44;5026679;28;20442;-76
2022/05/10 07:10:39;;;;;;;9.07;6.30;;;13.80;99.90;;;14.68;100.00;98553.16;5028148;28;20500;-76
2022/05/10 07:13:09;;;;;;;10.53;5.70;;;13.90;99.90;;;14.76;100.00;98550.28;5026461;28;20848;-76
2022/05/10 07:15:38;;;;;;;6.03;5.30;;;13.90;99.90;;;14.84;100.00;98553.56;5026460;28;20497;-77
2022/05/10 07:18:09;;;;;;;8.67;5.60;;;14.00;99.90;;;14.92;100.00;98548.09;5027272;28;20477;-76
2022/05/10 07:20:38;;;;;;;12.73;5.17;;;14.10;99.90;;;15.01;100.00;98548.69;5025855;28;20454;-76
2022/05/10 07:23:11;;;;;;;13.60;5.80;;;14.20;99.90;;;15.07;100.00;98545.25;5025997;28;20480;-77
2022/05/10 07:25:41;;;;;;;6.60;5.10;;;14.30;99.90;;;15.15;100.00;98550.31;5026007;28;20466;-76
2022/05/10 07:28:11;;;;;;;9.20;4.97;;;14.40;99.90;;;15.22;100.00;98545.84;5024762;28;20533;-77
2022/05/10 07:30:42;;;;;;;12.87;6.07;;;14.50;99.90;;;15.29;100.00;98546.66;5023970;28;20845;-76
2022/05/10 07:33:12;;;;;;;7.23;5.20;;;14.50;99.90;;;15.35;100.00;98540.56;5028188;28;20704;-76
2022/05/10 07:38:30;;;;;;;11.90;5.47;;;14.70;99.90;;;15.53;100.00;98537.31;5027965;28;20434;-77
2022/05/10 07:41:00;;;;;;;9.53;5.03;;;14.80;99.90;;;15.59;100.00;98537.31;5027521;28;20462;-76
2022/05/10 07:43:35;;;;;;;8.97;5.00;;;14.90;99.90;;;15.69;100.00;98541.34;5029044;28;20445;-76
2022/05/10 07:46:07;;;;;;;7.07;4.73;;;15.00;99.90;;;15.78;100.00;98540.09;5025996;28;20889;-77
2022/05/10 07:48:36;;;;;;;9.00;5.90;;;15.10;99.90;;;15.87;100.00;98528.28;5019598;28;20862;-77
2022/05/10 07:51:06;;;;;;;5.93;4.43;;;15.20;99.90;;;15.96;100.00;98527.06;5020492;28;20466;-77
2022/05/10 07:53:38;;;;;;;9.03;5.23;;;15.40;99.90;;;16.07;100.00;98521.91;5020159;28;20538;-76
2022/05/10 07:56:14;;;;;;;7.80;5.50;;;15.50;99.90;;;16.18;100.00;98530.19;5021001;28;20519;-76
2022/05/10 07:58:55;;;;;;;6.07;4.20;;;15.60;99.90;;;16.27;100.00;98521.84;5023979;28;20443;-76
2022/05/10 08:01:27;;;;;;;10.30;5.37;;;15.70;99.90;;;16.39;100.00;98521.94;5024384;28;20830;-76
2022/05/10 08:03:58;;;;;;;6.83;4.77;;;15.80;99.90;;;16.47;100.00;98519.88;5025749;28;20442;-77
2022/05/10 08:06:29;;;;;;;5.27;4.77;;;15.90;99.90;;;16.55;100.00;98519.66;5026006;28;20442;-77
2022/05/10 08:09:02;;;;;;;6.20;4.77;;;16.00;99.90;;;16.64;100.00;98514.94;5025677;28;20438;-76
2022/05/10 08:11:34;;;;;;;5.50;4.57;;;16.10;99.90;;;16.73;100.00;98510.97;5025735;28;20481;-76
2022/05/10 08:14:05;;;;;;;5.03;4.03;;;16.20;99.90;;;16.81;100.00;98507.28;5026079;28;20886;-76
2022/05/10 08:16:35;;;;;;;5.40;4.20;;;16.30;99.90;;;16.90;100.00;98508.66;5025564;28;20490;-76
2022/05/10 08:19:05;;;;;;;8.47;4.10;;;16.40;99.90;;;16.98;100.00;98495.13;5026523;28;20461;-76
2022/05/10 08:21:35;;;;;;;4.93;4.10;;;16.50;99.90;;;17.08;100.00;98501.56;5025577;28;20462;-76
2022/05/10 08:24:07;;;;;;;4.50;4.03;;;16.60;99.90;;;17.19;100.00;98499.22;5026204;28;20450;-76
2022/05/10 08:26:37;;;;;;;4.87;4.10;;;16.60;99.90;;;17.28;100.00;98501.38;5026090;28;20445;-76
2022/05/10 08:29:06;;;;;;;5.50;4.03;;;16.70;99.90;;;17.39;100.00;98492.72;5030022;28;20561;-76
2022/05/10 08:31:37;;;;;;;4.30;3.90;;;16.80;99.90;;;17.48;100.00;98496.69;5029628;28;20454;-76
2022/05/10 08:34:08;;;;;;;6.70;4.10;;;17.00;99.90;;;17.57;100.00;98502.53;5030558;28;20445;-76
2022/05/10 08:36:41;;;;;;;5.33;4.20;;;17.10;99.90;;;17.66;100.00;98500.41;5029377;28;20580;-76
2022/05/10 08:39:13;;;;;;;6.50;4.20;;;17.20;99.90;;;17.74;100.00;98489.50;5028510;28;20448;-76
2022/05/10 08:41:52;;;;;;;6.47;4.20;;;17.30;99.90;;;17.84;100.00;98497.75;5024532;28;21443;-76
2022/05/10 08:44:26;;;;;;;7.17;3.93;;;17.40;99.90;;;18.00;100.00;98494.50;5023808;28;20486;-76
2022/05/10 08:47:00;;;;;;;5.77;3.97;;;17.60;99.90;;;18.14;100.00;98490.66;5027586;28;20462;-76
2022/05/10 08:49:36;;;;;;;11.93;4.40;;;17.70;99.90;;;18.25;100.00;98491.72;5029855;28;20496;-76
2022/05/10 08:52:07;;;;;;;6.07;3.90;;;17.80;99.90;;;18.38;100.00;98480.94;5027767;28;20464;-76
2022/05/10 08:54:40;;;;;;;6.60;4.20;;;17.90;99.90;;;18.48;100.00;98478.53;5030242;28;20446;-76
2022/05/10 08:57:20;;;;;;;4.83;3.97;;;18.00;99.90;;;18.61;100.00;98481.00;5023484;28;20508;-77
2022/05/10 09:00:04;;;;;;;10.03;4.33;;;18.10;99.90;;;18.71;100.00;98469.88;5025230;28;20453;-76
2022/05/10 09:02:44;;;;;;;12.30;4.10;;;18.30;99.90;;;18.83;100.00;98478.63;5024169;28;20454;-76
2022/05/10 09:05:25;;;;;;;8.97;3.97;;;18.40;99.90;;;18.93;100.00;98478.88;5022346;28;20441;-76
2022/05/10 09:08:08;;;;;;;5.10;3.60;;;18.50;99.90;;;19.02;100.00;98478.28;5023487;28;20438;-76
2022/05/10 09:10:47;;;;;;;8.27;4.13;;;18.60;99.90;;;19.15;92.58;98476.47;5024774;28;20446;-76
2022/05/10 09:13:18;;;;;;;6.07;3.67;;;18.60;99.70;;;19.22;87.02;98471.84;5023788;28;20507;-76
2022/05/10 09:15:55;;;;;;;3.77;3.10;;;18.70;97.90;;;19.29;85.54;98468.03;5024743;28;20469;-76
2022/05/10 09:18:29;;;;;;;3.67;3.13;;;18.80;99.00;;;19.39;85.15;98467.44;5025660;28;20447;-76
2022/05/10 09:21:10;;;;;;;3.70;3.13;;;19.00;99.10;;;19.49;86.35;98463.19;5023809;28;20460;-76
2022/05/10 09:23:52;;;;;;;8.27;4.10;;;19.00;99.30;;;19.57;86.69;98465.50;5023840;28;20443;-76
2022/05/10 09:26:32;;;;;;;4.20;3.80;;;19.10;99.50;;;19.73;83.83;98463.13;5024728;28;20445;-76
2022/05/10 09:29:27;;;;;;;5.60;3.60;;;19.20;98.50;;;19.81;79.66;98460.13;5023294;28;20994;-76
2022/05/10 09:35:11;;;;;;;4.20;3.20;;;19.40;96.80;;;20.12;73.04;98461.50;4985828;28;20454;-76
2022/05/10 09:37:46;;;;;;;8.63;3.00;;;19.50;96.00;;;20.26;73.07;98468.94;5025617;28;20951;-76
2022/05/10 09:40:32;;;;;;;4.13;3.13;;;19.80;96.20;;;20.34;73.31;98465.91;5027584;28;20877;-76
2022/05/10 09:43:25;;;;;;;4.63;3.33;;;19.80;96.10;;;20.44;73.32;98460.78;5029051;28;20446;-76
2022/05/10 09:46:12;;;;;;;3.77;3.37;;;19.90;96.20;;;20.51;72.55;98456.09;5027887;28;20454;-76
2022/05/10 09:48:44;;;;;;;3.90;3.50;;;19.90;96.10;;;20.59;71.73;98454.91;5027741;28;20466;-76
2022/05/10 09:51:37;;;;;;;4.60;3.40;;;20.00;95.60;;;20.66;70.79;98446.78;5025974;28;20454;-76
2022/05/10 09:54:25;;;;;;;4.47;3.13;;;20.10;95.80;;;20.74;65.40;98446.38;5024801;28;20504;-76
2022/05/10 09:56:58;;;;;;;5.20;4.00;;;20.20;93.70;;;20.88;67.53;98447.66;5031487;28;20473;-76
2022/05/10 09:59:39;;;;;;;7.63;3.37;;;20.30;95.10;;;21.00;69.78;98451.84;5030050;28;20638;-76
2022/05/10 10:02:09;;;;;;;4.43;2.83;;;20.50;95.60;;;21.09;67.98;98442.41;5028884;28;20838;-76
2022/05/10 10:04:42;;;;;;;5.60;3.60;;;20.60;95.10;;;21.22;67.95;98451.91;5028674;28;20447;-76
2022/05/10 10:07:20;;;;;;;5.97;3.30;;;20.60;95.20;;;21.31;62.69;98439.78;5029361;28;20454;-76
2022/05/10 10:09:53;;;;;;;4.83;3.20;;;20.70;93.70;;;21.43;62.09;98448.47;5029824;28;20442;-76
2022/05/10 10:12:35;;;;;;;6.33;3.60;;;20.90;93.50;;;21.47;59.57;98449.59;5028223;28;20520;-77
2022/05/10 10:15:40;;;;;;;4.40;3.13;;;20.90;92.60;;;21.53;59.76;98451.28;5029407;28;20448;-76
2022/05/10 10:18:32;;;;;;;2.97;2.67;;;20.90;93.00;;;21.60;58.98;98448.41;5029149;28;20442;-76
2022/05/10 10:21:06;;;;;;;3.60;3.03;;;21.00;92.50;;;21.63;59.84;98441.78;5028910;28;20537;-76
2022/05/10 10:23:41;;;;;;;3.93;3.27;;;21.00;93.00;;;21.67;60.75;98449.03;5027471;28;21126;-76
2022/05/10 10:26:19;;;;;;;4.00;3.40;;;21.10;93.30;;;21.70;60.35;98437.09;5028452;28;20990;-76
2022/05/10 10:28:56;;;;;;;4.50;2.83;;;21.10;93.10;;;21.74;59.55;98447.00;5027412;28;20472;-76
2022/05/10 10:31:35;;;;;;;6.00;2.73;;;21.20;92.80;;;21.79;58.80;98436.41;5025251;28;20550;-76
2022/05/10 10:34:12;;;;;;;3.00;2.70;;;21.20;92.60;;;21.87;58.40;98435.94;5022714;28;20475;-76
2022/05/10 10:36:51;;;;;;;8.53;3.33;;;21.30;92.60;;;21.89;56.90;98433.06;5021606;28;20478;-76
2022/05/10 10:39:33;;;;;;;3.70;2.90;;;21.30;91.70;;;21.95;56.90;98429.41;5022317;28;20443;-77
2022/05/10 10:42:13;;;;;;;3.50;3.20;;;21.40;91.90;;;22.02;58.11;98430.03;5021897;28;20453;-76
2022/05/10 10:44:54;;;;;;;5.87;3.50;;;21.40;92.50;;;22.08;58.13;98423.69;5021333;28;20453;-76
2022/05/10 10:47:35;;;;;;;5.37;2.87;;;21.50;92.40;;;22.10;57.60;98421.59;5021217;28;20865;-76
2022/05/10 10:50:19;;;;;;;5.90;2.43;;;21.50;92.60;;;22.18;55.64;98426.44;5021198;28;20482;-76
2022/05/10 10:52:51;;;;;;;3.30;2.20;;;21.60;91.30;;;22.24;53.47;98422.78;5022660;28;20435;-76
2022/05/10 10:55:23;;;;;;;5.50;2.60;;;21.70;90.60;;;22.29;54.55;98409.50;5021892;28;20959;-77
2022/05/10 10:58:07;;;;;;;4.97;3.00;;;21.70;91.50;;;22.36;55.13;98414.63;5020437;28;20493;-77